createdAt,value
2023-04-03T00:00:58.335Z,3.2
2023-04-03T00:05:07.560Z,3.2
2023-04-03T00:07:10.588Z,3.2
2023-04-03T00:10:16.693Z,3.2
2023-04-03T00:12:19.739Z,3.1
2023-04-03T00:14:22.721Z,3.1
2023-04-03T00:16:28.942Z,3.2
2023-04-03T00:20:35.285Z,3.2
2023-04-03T00:22:37.991Z,3.2
2023-04-03T00:24:40.978Z,3.2
2023-04-03T00:28:47.997Z,3
2023-04-03T00:32:56.239Z,3
2023-04-03T00:34:59.244Z,3
2023-04-03T00:37:02.392Z,3
2023-04-03T00:43:11.304Z,2.9
2023-04-03T00:49:23.523Z,2.9
2023-04-03T00:51:26.535Z,2.8
2023-04-03T00:53:29.519Z,2.7
2023-04-03T00:55:32.533Z,2.8
2023-04-03T00:57:35.589Z,2.7
2023-04-03T01:06:53.844Z,2.6
2023-04-03T01:08:56.829Z,2.7
2023-04-03T01:10:59.901Z,2.6
2023-04-03T01:13:06.024Z,2.6
2023-04-03T01:15:09.042Z,2.7
2023-04-03T01:17:12.044Z,2.5
2023-04-03T01:37:45.234Z,2.4
2023-04-03T01:41:54.431Z,2.2
2023-04-03T01:43:57.392Z,2.2
2023-04-03T01:48:03.412Z,2.1
2023-04-03T01:50:06.366Z,2.1
2023-04-03T01:52:09.372Z,2.1
2023-04-03T01:54:12.378Z,2
2023-04-03T01:56:18.567Z,2.1
2023-04-03T01:58:21.561Z,2
2023-04-03T02:00:24.535Z,2
2023-04-03T02:01:27.637Z,2
2023-04-03T02:19:57.668Z,1.8
2023-04-03T02:22:00.627Z,1.7
2023-04-03T02:26:09.800Z,1.7
2023-04-03T02:30:15.732Z,1.6
2023-04-03T02:36:24.638Z,1.6
2023-04-03T02:38:30.809Z,1.5
2023-04-03T02:40:33.793Z,1.6
2023-04-03T02:42:36.765Z,1.5
2023-04-03T02:44:39.754Z,1.5
2023-04-03T02:46:42.711Z,1.4
2023-04-03T02:48:45.920Z,1.5
2023-04-03T02:50:48.685Z,1.4
2023-04-03T02:52:54.868Z,1.4
2023-04-03T02:54:57.820Z,1.4
2023-04-03T03:07:39.888Z,1.4
2023-04-03T03:11:45.798Z,1.2
2023-04-03T03:13:48.784Z,1.3
2023-04-03T03:15:51.747Z,1.3
2023-04-03T03:17:54.747Z,1.3
2023-04-03T03:20:00.858Z,1.2
2023-04-03T03:22:03.853Z,1.3
2023-04-03T03:24:06.840Z,1.2
2023-04-03T03:26:09.800Z,1.2
2023-04-03T03:28:12.773Z,1.2
2023-04-03T03:30:15.685Z,1.2
2023-04-03T03:32:18.640Z,1.2
2023-04-03T03:36:27.790Z,1
2023-04-03T03:38:30.715Z,1
2023-04-03T03:40:35.290Z,1
2023-04-03T03:44:41.159Z,1
2023-04-03T03:48:50.266Z,1
2023-04-03T03:50:53.193Z,1
2023-04-03T03:52:56.135Z,0.9
2023-04-03T03:53:59.241Z,0.9
2023-04-03T03:56:02.225Z,0.8
2023-04-03T03:58:05.158Z,0.8
2023-04-03T04:00:08.119Z,0.9
2023-04-03T04:02:14.332Z,0.8
2023-04-03T04:04:17.364Z,0.8
2023-04-03T04:06:20.160Z,0.7
2023-04-03T04:08:23.090Z,0.8
2023-04-03T04:10:26.087Z,0.8
2023-04-03T04:20:44.201Z,0.6
2023-04-03T04:22:47.141Z,0.6
2023-04-03T04:24:50.062Z,0.6
2023-04-03T04:33:05.053Z,0.6
2023-04-03T04:41:16.727Z,0.6
2023-04-03T04:45:25.837Z,0.5
2023-04-03T04:47:28.771Z,0.6
2023-04-03T04:50:34.749Z,0.6
2023-04-03T04:54:40.600Z,0.5
2023-04-03T04:58:49.692Z,0.5
2023-04-03T05:00:52.579Z,0.5
2023-04-03T05:02:55.604Z,0.5
2023-04-03T05:07:01.366Z,0.5
2023-04-03T05:09:04.307Z,0.5
2023-04-03T05:11:07.224Z,0.5
2023-04-03T05:13:13.355Z,0.5
2023-04-03T05:15:16.276Z,0.5
2023-04-03T05:19:22.157Z,0.5
2023-04-03T05:21:25.064Z,0.5
2023-04-03T05:25:30.884Z,0.5
2023-04-03T05:27:37.018Z,0.5
2023-04-03T05:31:42.891Z,0.5
2023-04-03T05:33:45.785Z,0.6
2023-04-03T05:35:48.718Z,0.7
2023-04-03T05:37:51.636Z,0.7
2023-04-03T05:39:54.538Z,0.8
2023-04-03T05:42:00.670Z,0.8
2023-04-03T05:44:03.574Z,0.9
2023-04-03T05:46:06.567Z,0.9
2023-04-03T05:47:09.561Z,1
2023-04-03T05:55:24.483Z,1.1
2023-04-03T05:57:27.492Z,1.3
2023-04-03T05:59:30.297Z,1.3
2023-04-03T06:01:33.219Z,1.4
2023-04-03T06:03:37.885Z,1.4
2023-04-03T06:05:39.416Z,1.5
2023-04-03T06:07:41.973Z,1.5
2023-04-03T06:09:48.154Z,1.5
2023-04-03T06:17:59.920Z,1.8
2023-04-03T06:40:38.995Z,2.6
2023-04-03T06:53:18.894Z,4.2
2023-04-03T06:55:21.902Z,4.2
2023-04-03T06:57:24.948Z,4.6
2023-04-03T06:59:27.943Z,4.7
2023-04-03T07:09:46.268Z,6.8
2023-04-03T07:11:49.337Z,7.2
2023-04-03T07:13:52.349Z,8
2023-04-03T07:15:55.423Z,8.9
2023-04-03T07:17:58.499Z,8.5
2023-04-03T07:20:04.784Z,9.1
2023-04-03T07:22:07.817Z,9.3
2023-04-03T07:24:13.082Z,10.1
2023-04-03T07:26:13.935Z,10.2
2023-04-03T07:28:17.010Z,9.6
2023-04-03T07:30:20.121Z,10.5
2023-04-03T07:32:23.187Z,11.1
2023-04-03T07:34:29.464Z,11.2
2023-04-03T07:36:32.565Z,11.1
2023-04-03T07:38:35.626Z,11
2023-04-03T07:39:38.861Z,11.3
2023-04-03T07:47:54.423Z,12.3
2023-04-03T07:56:06.802Z,11.9
2023-04-03T07:58:09.890Z,12.2
2023-04-03T08:00:13.018Z,13.2
2023-04-03T08:02:19.332Z,12.8
2023-04-03T08:04:22.562Z,12.8
2023-04-03T08:06:37.524Z,12.3
2023-04-03T08:08:28.683Z,12
2023-04-03T08:10:31.842Z,12.6
2023-04-03T08:12:34.958Z,12.5
2023-04-03T08:14:38.070Z,12.6
2023-04-03T08:16:44.338Z,11.5
2023-04-03T08:18:47.330Z,11.7
2023-04-03T08:20:50.466Z,12.9
2023-04-03T08:22:53.603Z,13.2
2023-04-03T08:24:59.341Z,13
2023-04-03T08:26:59.791Z,12.5
2023-04-03T08:29:02.784Z,12.6
2023-04-03T08:31:09.004Z,12.8
2023-04-03T08:33:12.137Z,12.6
2023-04-03T08:35:14.987Z,12.8
2023-04-03T08:40:24.144Z,12.4
2023-04-03T08:42:27.192Z,12.1
2023-04-03T08:48:39.440Z,13.5
2023-04-03T08:50:42.414Z,13.6
2023-04-03T08:52:45.473Z,12.9
2023-04-03T08:54:48.499Z,13.6
2023-04-03T08:56:51.591Z,13.4
2023-04-03T08:58:57.697Z,12.5
2023-04-03T09:01:00.744Z,12.5
2023-04-03T09:05:06.813Z,13
2023-04-03T09:09:12.896Z,12.7
2023-04-03T09:13:22.097Z,12.6
2023-04-03T09:17:28.204Z,12.6
2023-04-03T09:19:31.246Z,12.6
2023-04-03T09:23:37.303Z,11.8
2023-04-03T09:27:46.477Z,12
2023-04-03T09:32:55.698Z,11.4
2023-04-03T09:35:03.982Z,11.2
2023-04-03T09:37:03.256Z,11.4
2023-04-03T09:39:06.305Z,10.7
2023-04-03T09:41:12.484Z,10.6
2023-04-03T09:43:15.516Z,10.6
2023-04-03T09:45:18.541Z,10.3
2023-04-03T09:47:21.601Z,9.9
2023-04-03T09:49:24.644Z,9.6
2023-04-03T09:51:31.655Z,9.5
2023-04-03T09:53:30.713Z,9.8
2023-04-03T09:55:36.885Z,9.7
2023-04-03T09:59:42.954Z,10
2023-04-03T10:01:48.934Z,10.1
2023-04-03T10:03:49.023Z,10.1
2023-04-03T10:05:52.105Z,10.3
2023-04-03T10:08:03.571Z,10.6
2023-04-03T10:10:01.283Z,10.5
2023-04-03T10:18:24.016Z,9.7
2023-04-03T10:20:16.551Z,10.1
2023-04-03T10:22:19.534Z,10.2
2023-04-03T10:24:25.699Z,10
2023-04-03T10:31:01.277Z,10.5
2023-04-03T10:33:04.339Z,10.6
2023-04-03T10:35:07.362Z,10.8
2023-04-03T10:37:13.529Z,10.4
2023-04-03T10:39:16.590Z,10.6
2023-04-03T10:41:19.609Z,10.1
2023-04-03T10:45:25.702Z,10.2
2023-04-03T10:47:28.816Z,10.1
2023-04-03T10:49:31.805Z,10
2023-04-03T10:51:37.976Z,10.4
2023-04-03T10:53:41.118Z,10.5
2023-04-03T10:55:44.257Z,10.7
2023-04-03T10:57:47.419Z,10.6
2023-04-03T10:59:50.329Z,10.6
2023-04-03T11:22:30.174Z,11.2
2023-04-03T11:24:33.213Z,11.4
2023-04-03T11:31:45.467Z,10.8
2023-04-03T11:37:57.685Z,10.8
2023-04-03T11:40:00.752Z,11.2
2023-04-03T11:44:06.847Z,11.3
2023-04-03T11:46:09.906Z,11.3
2023-04-03T11:48:24.600Z,11
2023-04-03T11:50:19.025Z,10.9
2023-04-03T11:52:22.040Z,10.9
2023-04-03T11:54:30.033Z,11
2023-04-03T11:56:28.119Z,11.3
2023-04-03T11:58:31.136Z,11
2023-04-03T12:02:53.780Z,11.7
2023-04-03T12:06:46.377Z,11.2
2023-04-03T12:08:49.993Z,11.3
2023-04-03T12:10:53.593Z,11.3
2023-04-03T12:12:55.466Z,11.4
2023-04-03T12:17:04.672Z,11.7
2023-04-03T12:19:07.672Z,11.6
2023-04-03T12:21:10.648Z,11.2
2023-04-03T12:22:13.726Z,11.2
2023-04-03T12:26:19.750Z,11.1
2023-04-03T12:28:22.751Z,11.3
2023-04-03T12:48:59.173Z,11.6
2023-04-03T13:11:35.359Z,13
2023-04-03T13:13:41.451Z,13.1
2023-04-03T13:15:44.527Z,13.2
2023-04-03T13:18:50.506Z,13.2
2023-04-03T13:20:53.865Z,13.2
2023-04-03T13:22:56.537Z,13.4
2023-04-03T13:24:59.986Z,13.7
2023-04-03T13:27:05.640Z,13.8
2023-04-03T13:29:10.946Z,13.6
2023-04-03T13:31:11.637Z,13.3
2023-04-03T13:33:14.685Z,13.5
2023-04-03T13:35:18.797Z,13.9
2023-04-03T13:39:23.669Z,14.3
2023-04-03T13:41:29.788Z,14.2
2023-04-03T13:45:36.120Z,15.1
2023-04-03T13:47:38.831Z,14.8
2023-04-03T13:49:41.787Z,14.2
2023-04-03T13:51:46.378Z,14.5
2023-04-03T13:53:48.700Z,14.8
2023-04-03T13:57:56.924Z,14.3
2023-04-03T14:04:05.984Z,14.2
2023-04-03T14:06:08.942Z,14.3
2023-04-03T14:08:11.926Z,15.7
2023-04-03T14:16:53.390Z,15.4
2023-04-03T14:18:56.367Z,15.2
2023-04-03T14:20:59.363Z,15.4
2023-04-03T14:23:05.491Z,15.5
2023-04-03T14:25:08.472Z,15.4
2023-04-03T14:27:11.501Z,15.4
2023-04-03T14:29:14.511Z,15
2023-04-03T14:31:17.525Z,15.3
2023-04-03T14:33:20.520Z,15.5
2023-04-03T14:35:23.532Z,15.4
2023-04-03T14:37:29.648Z,15.6
2023-04-03T14:39:32.623Z,15.2
2023-04-03T14:41:35.627Z,15.7
2023-04-03T14:43:38.635Z,15.4
2023-04-03T14:47:44.748Z,15.4
2023-04-03T14:49:47.653Z,14.6
2023-04-03T14:51:53.837Z,16
2023-04-03T14:53:59.474Z,16.2
2023-04-03T14:58:02.767Z,15.4
2023-04-03T15:02:08.929Z,15.9
2023-04-03T15:04:12.002Z,15.2
2023-04-03T15:06:17.876Z,15.1
2023-04-03T15:08:20.928Z,15
2023-04-03T15:10:23.885Z,15.3
2023-04-03T15:11:26.959Z,15.8
2023-04-03T15:13:29.981Z,15.4
2023-04-03T15:15:33.008Z,15.4
2023-04-03T15:21:45.124Z,16.9
2023-04-03T15:23:48.156Z,17
2023-04-03T15:25:51.167Z,16.8
2023-04-03T15:27:54.197Z,16.1
2023-04-03T15:29:58.763Z,16
2023-04-03T15:34:07.850Z,16.6
2023-04-03T15:36:22.597Z,15.8
2023-04-03T15:38:14.316Z,14.8
2023-04-03T15:40:16.936Z,14.9
2023-04-03T15:42:19.994Z,14.8
2023-04-03T15:48:32.262Z,15.2
2023-04-03T15:50:35.205Z,14.9
2023-04-03T15:54:41.172Z,15.4
2023-04-03T15:56:44.201Z,15.6
2023-04-03T15:58:47.221Z,15.8
2023-04-03T16:00:50.247Z,15.4
2023-04-03T16:02:56.446Z,14.3
2023-04-03T16:04:59.385Z,14.3
2023-04-03T16:07:02.423Z,14.3
2023-04-03T16:18:23.810Z,14.8
2023-04-03T16:28:38.990Z,10.1
2023-04-03T16:32:48.243Z,9.8
2023-04-03T16:34:51.319Z,9.8
2023-04-03T16:36:54.366Z,9.7
2023-04-03T16:38:57.403Z,9.5
2023-04-03T16:43:03.590Z,9.6
2023-04-03T16:49:16.090Z,9.3
2023-04-03T16:51:19.200Z,9.5
2023-04-03T16:55:25.532Z,9.2
2023-04-03T16:57:28.671Z,9.1
2023-04-03T16:59:35.070Z,9
2023-04-03T17:01:38.202Z,9.1
2023-04-03T17:03:41.423Z,9
2023-04-03T17:04:44.562Z,9
2023-04-03T17:06:47.705Z,9
2023-04-03T17:08:50.875Z,9
2023-04-03T17:10:53.998Z,8.8
2023-04-03T17:13:00.639Z,8.8
2023-04-03T17:15:03.793Z,8.8
2023-04-03T17:17:06.956Z,8.8
2023-04-03T17:19:10.081Z,8.8
2023-04-03T17:21:13.204Z,8.9
2023-04-03T17:23:16.370Z,8.7
2023-04-03T17:25:19.508Z,8.6
2023-04-03T17:43:54.176Z,8.2
2023-04-03T17:45:57.319Z,8.1
2023-04-03T17:48:00.511Z,8.2
2023-04-03T17:50:03.556Z,8.1
2023-04-03T17:54:09.807Z,7.9
2023-04-03T17:56:16.160Z,7.9
2023-04-03T17:58:19.289Z,7.8
2023-04-03T18:00:22.462Z,7.9
2023-04-03T18:02:52.310Z,7.7
2023-04-03T18:04:55.399Z,7.8
2023-04-03T18:06:58.491Z,7.8
2023-04-03T18:09:04.854Z,7.7
2023-04-03T18:11:07.990Z,7.6
2023-04-03T18:13:11.119Z,7.5
2023-04-03T18:15:14.209Z,7.5
2023-04-03T18:17:17.367Z,7.4
2023-04-03T18:19:23.240Z,7.5
2023-04-03T18:21:23.605Z,7.5
2023-04-03T18:23:29.949Z,7.3
2023-04-03T18:37:54.979Z,7.1
2023-04-03T18:39:58.095Z,7.1
2023-04-03T18:42:01.200Z,7.1
2023-04-03T18:44:04.338Z,7.1
2023-04-03T18:46:07.477Z,7
2023-04-03T18:48:10.557Z,7
2023-04-03T18:50:13.709Z,7
2023-04-03T18:52:20.004Z,6.8
2023-04-03T18:56:26.267Z,6.8
2023-04-03T18:57:29.422Z,6.8
2023-04-03T19:01:35.825Z,6.8
2023-04-03T19:03:38.901Z,6.7
2023-04-03T19:07:48.244Z,6.7
2023-04-03T19:09:51.412Z,6.7
2023-04-03T19:14:04.560Z,6.6
2023-04-03T19:16:00.706Z,6.6
2023-04-03T19:18:03.828Z,6.4
2023-04-03T19:20:10.234Z,6.4
2023-04-03T19:22:13.252Z,6.4
2023-04-03T19:24:16.403Z,6.3
2023-04-03T19:26:19.497Z,6.4
2023-04-03T19:28:22.609Z,6.4
2023-04-03T19:30:25.730Z,6.3
2023-04-03T19:32:28.851Z,6.3
2023-04-03T19:34:35.119Z,6.3
2023-04-03T19:36:38.262Z,6.3
2023-04-03T19:38:41.364Z,6.2
2023-04-03T19:40:44.461Z,6.3
2023-04-03T19:42:47.603Z,6.2
2023-04-03T19:44:50.672Z,6.2
2023-04-03T19:46:53.825Z,6.2
2023-04-03T19:49:00.218Z,6.3
2023-04-03T19:51:03.186Z,6.2
2023-04-03T19:53:06.305Z,6.2
2023-04-03T19:54:09.419Z,6.1
2023-04-03T20:02:25.005Z,6
2023-04-03T20:04:28.162Z,6
2023-04-03T20:18:53.037Z,5.9
2023-04-03T20:20:56.110Z,5.7
2023-04-03T20:22:59.248Z,5.8
2023-04-03T20:25:06.288Z,5.7
2023-04-03T20:27:05.424Z,5.8
2023-04-03T20:35:21.023Z,5.6
2023-04-03T20:39:27.261Z,5.4
2023-04-03T20:41:30.321Z,5.4
2023-04-03T20:43:33.390Z,5.4
2023-04-03T20:45:39.733Z,5.2
2023-04-03T20:50:49.088Z,5
2023-04-03T20:52:52.145Z,5.2
2023-04-03T20:54:55.194Z,5.2
2023-04-03T20:56:58.298Z,5.1
2023-04-03T20:59:04.875Z,4.8
2023-04-03T21:03:10.821Z,4.6
2023-04-03T21:05:13.871Z,4.6
2023-04-03T21:07:16.900Z,4.4
2023-04-03T21:09:19.954Z,4.4
2023-04-03T21:11:23.077Z,4.2
2023-04-03T21:15:32.402Z,4.3
2023-04-03T21:17:35.536Z,4.2
2023-04-03T21:19:38.517Z,4.2
2023-04-03T21:21:41.625Z,4.2
2023-04-03T21:23:44.679Z,4.1
2023-04-03T21:25:49.312Z,4
2023-04-03T21:27:55.542Z,3.9
2023-04-03T21:29:58.649Z,3.9
2023-04-03T21:32:01.716Z,3.8
2023-04-03T21:34:04.756Z,3.7
2023-04-03T21:36:07.810Z,3.5
2023-04-03T21:38:10.850Z,3.5
2023-04-03T21:40:13.904Z,3.5
2023-04-03T21:42:20.184Z,3.5
2023-04-03T21:46:26.339Z,3.5
2023-04-03T21:48:50.422Z,3.4
2023-04-03T21:50:53.489Z,3.4
2023-04-03T21:52:56.525Z,3.4
2023-04-03T21:55:02.788Z,3.3
2023-04-03T21:57:05.826Z,3.3
2023-04-03T21:59:09.082Z,3.4
2023-04-03T22:01:11.956Z,3.3
2023-04-03T22:03:15.010Z,3.3
2023-04-03T22:05:18.041Z,3.2
2023-04-03T22:07:21.017Z,3.1
2023-04-03T22:09:27.267Z,3.2
2023-04-03T22:11:30.341Z,3.2
2023-04-03T22:13:33.408Z,3.2
2023-04-03T22:15:36.408Z,3.3
2023-04-03T22:17:39.477Z,3.3
2023-04-03T22:19:42.451Z,3.2
2023-04-03T22:27:57.801Z,2.9
2023-04-03T22:38:16.147Z,2.9
2023-04-03T22:40:19.168Z,2.9
2023-04-03T22:42:22.185Z,2.8
2023-04-03T22:43:25.296Z,2.7
2023-04-03T22:45:28.338Z,2.7
2023-04-03T22:47:31.363Z,2.7
2023-04-03T22:51:40.609Z,2.6
2023-04-03T22:53:43.601Z,2.6
2023-04-03T22:55:46.629Z,2.6
2023-04-03T22:57:49.671Z,2.6
2023-04-03T22:59:52.680Z,2.6
2023-04-03T23:03:58.708Z,2.6
2023-04-03T23:06:04.899Z,2.6
2023-04-03T23:08:07.927Z,2.6
2023-04-03T23:12:13.930Z,2.4
2023-04-03T23:14:16.932Z,2.4
2023-04-03T23:20:29.183Z,2.4
2023-04-03T23:22:32.214Z,2.4
2023-04-03T23:24:35.189Z,2.4
2023-04-03T23:26:38.215Z,2.3
2023-04-03T23:28:41.199Z,2.3
2023-04-03T23:30:44.217Z,2.4
2023-04-03T23:32:47.270Z,2.3
2023-04-03T23:40:02.553Z,2.1
2023-04-03T23:42:05.570Z,2.1
2023-04-03T23:44:08.555Z,2.1
2023-04-03T23:46:11.605Z,2.1
2023-04-03T23:48:17.778Z,2
2023-04-03T23:50:20.774Z,2
2023-04-03T23:52:23.769Z,1.9
2023-04-03T23:54:26.781Z,2
2023-04-03T23:56:29.782Z,1.9
2023-04-03T23:58:32.759Z,1.9
